KNYG/NYG METAR and TAF weather

Enter ICAO airport designator
Station Type Date Time Source
KNYG METAR 2022/11/30 16:56 UTC NOAA

KNYG 301656Z 19013KT 10SM OVC019 13/11 A2985 RMK AO2 SLP108 T01280106


Station Type Date Time Source
KNYG Decoded METAR 2022/11/30 16:56 UTC NOAA

QUANTICO MARINE CORPS AIRFAC, VA, United States (KNYG) 38-30N 077-18W 3M
Nov 30, 2022 - 11:56 AM EST / 2022.11.30 1656 UTC
Wind: from the S (190 degrees) at 15 MPH (13 KT):0
Visibility: 10 mile(s):0
Sky conditions: overcast
Temperature: 55.0 F (12.8 C)
Dew Point: 51.1 F (10.6 C)
Relative Humidity: 86%
Pressure (altimeter): 29.85 in. Hg (1010 hPa)
ob: KNYG 301656Z 19013KT 10SM OVC019 13/11 A2985 RMK AO2 SLP108 T01280106
cycle: 17

Station Type Date Time Source
KNYG TAF 2022/11/30 15:21 UTC NOAA

TAF KNYG 3015/0115 17012KT 9999 SCT015 OVC040 QNH2990INS
TEMPO 3015/3021 18015KT 3200 RA BR BKN005 OVC010 651009
BECMG 3021/3023 18010G20KT 9999 SCT050 650109 QNH2977INS T14/3020Z T0/0112Z

Example: see airport list